Time;durP1;ratioP1;P1;durP2;ratioP2;P2;SDS_P1;SDS_P2;PMS_P1;PMS_P2;Temp;Humidity;BMP_temperature;BMP_pressure;BME280_temperature;BME280_humidity;BME280_pressure;Samples;Min_cycle;Max_cycle;Signal;HPM_P1;HPM_P2
2024/03/27 00:00:11;;;;;;;;;;;;;;;17.51;47.13;100514.44;5057243;28;989;-57
2024/03/27 00:02:37;;;;;;;;;;;;;;;17.52;47.40;100514.16;5058001;28;1297;-57
2024/03/27 00:05:03;;;;;;;;;;;;;;;16.72;48.09;100499.47;5056201;28;1902;-57
2024/03/27 00:07:28;;;;;;;;;;;;;;;16.45;48.37;100505.34;5057414;28;1364;-57
2024/03/27 00:09:54;;;;;;;;;;;;;;;17.82;47.11;100503.19;5054652;28;1376;-57
2024/03/27 00:12:19;;;;;;;;;;;;;;;16.84;48.34;100492.84;5056302;28;1167;-57
2024/03/27 00:14:45;;;;;;;;;;;;;;;16.53;47.73;100488.28;5053532;28;1297;-57
2024/03/27 00:17:10;;;;;;;;;;;;;;;16.38;47.36;100489.19;5055281;28;1297;-57
2024/03/27 00:19:36;;;;;;;;;;;;;;;16.24;46.77;100488.09;5051881;28;1380;-57
2024/03/27 00:22:02;;;;;;;;;;;;;;;17.05;47.78;100486.16;5055767;28;1281;-57
2024/03/27 00:24:31;;;;;;;;;;;;;;;17.65;47.33;100484.38;5044114;28;1975;-57
2024/03/27 00:26:56;;;;;;;;;;;;;;;16.69;48.60;100485.47;5055005;28;1305;-57
2024/03/27 00:29:22;;;;;;;;;;;;;;;16.52;47.53;100477.59;5049220;28;1341;-57
2024/03/27 00:31:49;;;;;;;;;;;;;;;16.30;47.01;100476.03;5053727;28;1380;-57
2024/03/27 00:34:14;;;;;;;;;;;;;;;16.23;46.57;100476.31;5048586;28;1068;-59
2024/03/27 00:36:40;;;;;;;;;;;;;;;16.82;47.74;100489.56;5052190;28;1119;-59
2024/03/27 00:39:06;;;;;;;;;;;;;;;17.10;48.23;100488.06;5048165;28;1220;-59
2024/03/27 00:41:32;;;;;;;;;;;;;;;16.48;48.40;100479.25;5050844;28;1297;-59
2024/03/27 00:43:57;;;;;;;;;;;;;;;16.32;47.44;100479.31;5047012;28;1918;-58
2024/03/27 00:46:23;;;;;;;;;;;;;;;16.22;46.81;100490.31;5049957;28;1297;-59
2024/03/27 00:48:48;;;;;;;;;;;;;;;16.82;47.67;100481.34;5044110;28;1009;-58
2024/03/27 00:51:14;;;;;;;;;;;;;;;16.89;48.34;100490.09;5049821;28;1348;-59
2024/03/27 00:53:39;;;;;;;;;;;;;;;16.37;48.11;100486.72;5052627;28;1365;-59
2024/03/27 00:56:06;;;;;;;;;;;;;;;16.21;47.36;100485.94;5057432;28;1529;-58
2024/03/27 00:58:31;;;;;;;;;;;;;;;16.05;47.39;100485.97;5055905;28;1288;-59
2024/03/27 01:00:57;;;;;;;;;;;;;;;17.63;47.02;100484.66;5056629;28;1139;-57
2024/03/27 01:03:23;;;;;;;;;;;;;;;17.27;47.99;100493.19;5037557;28;1979;-58
2024/03/27 01:05:48;;;;;;;;;;;;;;;16.59;48.25;100484.44;5056066;28;1343;-57
2024/03/27 01:08:14;;;;;;;;;;;;;;;16.37;47.54;100481.25;5054346;28;1399;-58
2024/03/27 01:10:39;;;;;;;;;;;;;;;16.29;47.02;100485.34;5055709;28;1300;-57
2024/03/27 01:13:09;;;;;;;;;;;;;;;16.86;47.82;100482.41;5052904;28;1110;-56
2024/03/27 01:15:35;;;;;;;;;;;;;;;16.89;48.34;100487.38;5054853;28;1360;-57
2024/03/27 01:18:00;;;;;;;;;;;;;;;16.46;48.18;100485.03;5051759;28;1238;-57
2024/03/27 01:20:27;;;;;;;;;;;;;;;16.22;47.58;100484.84;5054732;28;1352;-57
2024/03/27 01:22:53;;;;;;;;;;;;;;;17.63;47.49;100487.41;5050375;28;1403;-57
2024/03/27 01:25:19;;;;;;;;;;;;;;;16.87;48.43;100484.03;5053724;28;1905;-56
2024/03/27 01:27:44;;;;;;;;;;;;;;;16.46;48.10;100479.53;5048368;28;1428;-57
2024/03/27 01:30:10;;;;;;;;;;;;;;;16.25;47.55;100490.56;5052798;28;1344;-56
2024/03/27 01:32:35;;;;;;;;;;;;;;;17.52;47.54;100496.84;5047564;28;1099;-57
2024/03/27 01:35:01;;;;;;;;;;;;;;;17.03;48.35;100493.88;5051956;28;1470;-57
2024/03/27 01:37:26;;;;;;;;;;;;;;;16.66;48.12;100497.03;5047117;28;1115;-57
2024/03/27 01:39:52;;;;;;;;;;;;;;;17.32;48.04;100500.56;5050865;28;1379;-56
2024/03/27 01:42:17;;;;;;;;;;;;;;;17.70;47.52;100498.91;5046675;28;1131;-57
2024/03/27 01:44:43;;;;;;;;;;;;;;;16.97;47.92;100500.50;5050515;28;1902;-57
2024/03/27 01:47:09;;;;;;;;;;;;;;;16.64;47.66;100500.06;5045924;28;1151;-57
2024/03/27 01:49:34;;;;;;;;;;;;;;;16.47;46.79;100492.16;5033262;28;1356;-57
2024/03/27 01:52:00;;;;;;;;;;;;;;;17.50;47.64;100501.81;5026337;28;1297;-57
2024/03/27 01:54:25;;;;;;;;;;;;;;;16.67;48.33;100488.50;5056652;28;874;-57
2024/03/27 01:56:51;;;;;;;;;;;;;;;16.47;47.59;100494.91;5037512;28;1361;-57
2024/03/27 01:59:16;;;;;;;;;;;;;;;16.31;46.99;100488.63;5038254;28;1345;-56
2024/03/27 02:01:46;;;;;;;;;;;;;;;16.12;46.62;100490.31;5054388;28;1300;-57
2024/03/27 02:04:12;;;;;;;;;;;;;;;16.14;45.73;100482.66;5055230;28;1901;-57
2024/03/27 02:06:37;;;;;;;;;;;;;;;16.39;46.51;100503.72;5053495;28;1408;-57
2024/03/27 02:09:03;;;;;;;;;;;;;;;17.43;47.24;100494.72;5054752;28;1317;-56
2024/03/27 02:11:28;;;;;;;;;;;;;;;16.42;48.35;100501.25;5050916;28;1301;-56
2024/03/27 02:13:54;;;;;;;;;;;;;;;16.28;47.47;100493.88;5027372;28;1305;-56
2024/03/27 02:16:20;;;;;;;;;;;;;;;16.46;47.78;100490.53;5050503;28;1285;-56
2024/03/27 02:18:46;;;;;;;;;;;;;;;17.17;47.84;100479.50;5053656;28;1317;-56
2024/03/27 02:21:11;;;;;;;;;;;;;;;16.54;48.02;100486.38;5050039;28;1324;-56
2024/03/27 02:23:39;;;;;;;;;;;;;;;16.30;47.41;100481.53;5034933;28;1983;-56
2024/03/27 02:26:08;;;;;;;;;;;;;;;16.27;47.49;100492.22;5048426;28;1277;-56
2024/03/27 02:28:34;;;;;;;;;;;;;;;17.85;46.92;100480.63;5052103;28;1309;-56
2024/03/27 02:30:59;;;;;;;;;;;;;;;16.75;48.56;100482.44;5025078;28;1378;-56
2024/03/27 02:33:25;;;;;;;;;;;;;;;16.39;48.04;100484.50;5051104;28;1333;-56
2024/03/27 02:35:50;;;;;;;;;;;;;;;16.27;47.24;100484.00;5046797;28;1084;-56
2024/03/27 02:38:15;;;;;;;;;;;;;;;16.11;46.56;100489.50;5044087;28;1266;-56
2024/03/27 02:40:41;;;;;;;;;;;;;;;16.10;45.94;100484.31;5045679;28;1151;-56
2024/03/27 02:43:06;;;;;;;;;;;;;;;16.19;46.79;100490.88;5049321;28;1324;-56
2024/03/27 02:45:32;;;;;;;;;;;;;;;17.67;46.99;100496.72;5044323;28;1906;-56
2024/03/27 02:47:57;;;;;;;;;;;;;;;16.74;48.47;100490.97;5062520;28;1299;-55
2024/03/27 02:50:24;;;;;;;;;;;;;;;16.45;47.54;100494.34;5056003;28;1191;-53
2024/03/27 02:52:51;;;;;;;;;;;;;;;16.17;47.10;100490.31;5056467;28;1035;-54
2024/03/27 02:55:16;;;;;;;;;;;;;;;17.49;47.43;100487.25;5038102;28;1119;-51
2024/03/27 02:57:42;;;;;;;;;;;;;;;17.08;48.33;100485.59;5055807;28;1160;-52
2024/03/27 03:00:10;;;;;;;;;;;;;;;16.55;47.91;100483.38;5055502;28;1107;-53
2024/03/27 03:02:36;;;;;;;;;;;;;;;16.36;47.20;100479.59;5055445;28;1355;-53
2024/03/27 03:05:02;;;;;;;;;;;;;;;16.20;46.81;100482.38;5045243;28;1976;-54
2024/03/27 03:07:27;;;;;;;;;;;;;;;16.11;46.28;100466.75;5055887;28;1091;-53
2024/03/27 03:09:53;;;;;;;;;;;;;;;17.40;47.46;100467.81;5055461;28;971;-53
2024/03/27 03:12:18;;;;;;;;;;;;;;;17.44;47.43;100477.09;5055590;28;1118;-53
2024/03/27 03:14:44;;;;;;;;;;;;;;;16.73;47.94;100476.44;5026876;28;1060;-53
2024/03/27 03:17:10;;;;;;;;;;;;;;;16.49;47.48;100478.97;5055966;28;1008;-52
2024/03/27 03:19:36;;;;;;;;;;;;;;;17.04;47.84;100473.53;5055692;28;1150;-55
2024/03/27 03:22:03;;;;;;;;;;;;;;;17.20;47.98;100474.25;5055921;28;1155;-55
2024/03/27 03:24:29;;;;;;;;;;;;;;;16.65;48.09;100465.19;5055249;28;1980;-55
2024/03/27 03:26:55;;;;;;;;;;;;;;;16.37;47.46;100468.31;5054389;28;1024;-55
2024/03/27 03:29:21;;;;;;;;;;;;;;;16.26;46.82;100463.97;5054970;28;1126;-55
2024/03/27 03:31:46;;;;;;;;;;;;;;;16.20;46.71;100459.59;5055863;28;1052;-54
2024/03/27 03:34:12;;;;;;;;;;;;;;;17.54;47.17;100470.69;5037615;28;1132;-53
2024/03/27 03:36:38;;;;;;;;;;;;;;;16.55;48.56;100463.31;5055461;28;1210;-55
2024/03/27 03:39:04;;;;;;;;;;;;;;;16.56;48.19;100464.97;5055755;28;1096;-55
2024/03/27 03:41:29;;;;;;;;;;;;;;;17.50;47.28;100464.16;5055871;28;1062;-56
2024/03/27 03:43:55;;;;;;;;;;;;;;;16.75;48.11;100459.66;5055400;28;1969;-55
2024/03/27 03:46:20;;;;;;;;;;;;;;;16.44;47.50;100459.81;5055172;28;1195;-55
2024/03/27 03:48:46;;;;;;;;;;;;;;;16.29;46.86;100451.63;5055397;28;1063;-54
2024/03/27 03:51:11;;;;;;;;;;;;;;;16.97;47.55;100462.06;5056931;28;1016;-54
2024/03/27 03:53:37;;;;;;;;;;;;;;;17.36;47.78;100457.66;5059345;28;1171;-55
2024/03/27 03:56:03;;;;;;;;;;;;;;;16.64;48.00;100458.88;5059113;28;1067;-54
2024/03/27 03:58:28;;;;;;;;;;;;;;;16.42;47.09;100454.59;5054230;28;1183;-55
2024/03/27 04:00:54;;;;;;;;;;;;;;;16.25;46.71;100454.09;5059258;28;1114;-54
2024/03/27 04:03:20;;;;;;;;;;;;;;;16.27;47.03;100453.81;5058904;28;1910;-55
2024/03/27 04:05:46;;;;;;;;;;;;;;;17.78;47.08;100454.28;5059025;28;1087;-55
2024/03/27 04:08:11;;;;;;;;;;;;;;;17.12;48.21;100452.06;5058433;28;1099;-55
2024/03/27 04:10:38;;;;;;;;;;;;;;;16.73;47.81;100461.84;5058751;28;1023;-55
2024/03/27 04:13:03;;;;;;;;;;;;;;;16.58;47.76;100454.53;5058714;28;1150;-51
2024/03/27 04:15:29;;;;;;;;;;;;;;;18.11;46.85;100449.00;5059026;28;1100;-51
2024/03/27 04:17:55;;;;;;;;;;;;;;;17.08;47.84;100441.66;5050665;28;1226;-51
2024/03/27 04:20:21;;;;;;;;;;;;;;;16.61;47.70;100437.50;5058372;28;1114;-52
2024/03/27 04:22:46;;;;;;;;;;;;;;;16.45;47.27;100438.66;5050769;28;1159;-51
2024/03/27 04:25:12;;;;;;;;;;;;;;;16.25;46.98;100449.41;5051872;28;1968;-52
2024/03/27 04:27:37;;;;;;;;;;;;;;;16.60;47.50;100438.59;5038708;28;1113;-50
2024/03/27 04:30:03;;;;;;;;;;;;;;;17.78;47.12;100448.78;5038509;28;1172;-52
2024/03/27 04:32:29;;;;;;;;;;;;;;;16.77;48.53;100450.06;5047631;28;1452;-56
2024/03/27 04:34:55;;;;;;;;;;;;;;;16.45;48.11;100460.63;5058727;28;1063;-56
2024/03/27 04:37:20;;;;;;;;;;;;;;;16.32;47.38;100454.63;5053400;28;1163;-57
2024/03/27 04:39:46;;;;;;;;;;;;;;;17.15;48.07;100470.72;5065077;28;1074;-63
2024/03/27 04:42:12;;;;;;;;;;;;;;;16.89;48.47;100470.88;5064925;28;1183;-62
2024/03/27 04:44:40;;;;;;;;;;;;;;;16.49;48.18;100468.00;5065011;28;1971;-62
2024/03/27 04:47:05;;;;;;;;;;;;;;;16.26;47.40;100466.72;5052463;28;1096;-62
2024/03/27 04:49:31;;;;;;;;;;;;;;;16.20;46.60;100459.59;5075701;28;1051;-63
2024/03/27 04:51:56;;;;;;;;;;;;;;;17.54;47.58;100467.13;5058160;28;1142;-55
2024/03/27 04:54:22;;;;;;;;;;;;;;;17.62;47.70;100461.03;5071620;28;1068;-59
2024/03/27 04:56:47;;;;;;;;;;;;;;;16.80;48.51;100472.53;5057918;28;1088;-58
2024/03/27 04:59:13;;;;;;;;;;;;;;;16.45;47.90;100482.56;5075326;28;1115;-59
2024/03/27 05:01:38;;;;;;;;;;;;;;;16.32;47.24;100473.81;5075526;28;1447;-59
2024/03/27 05:04:04;;;;;;;;;;;;;;;18.01;47.17;100486.84;5055652;28;1973;-57
2024/03/27 05:06:29;;;;;;;;;;;;;;;17.51;47.90;100481.47;5051874;28;912;-57
2024/03/27 05:08:55;;;;;;;;;;;;;;;17.77;47.79;100484.81;5060916;28;1175;-55
2024/03/27 05:11:51;;;;;;;;;;;;;;;17.24;48.73;100482.75;5091657;28;1333;-61
2024/03/27 05:14:17;;;;;;;;;;;;;;;17.16;48.92;100480.63;5064896;28;855;-57
2024/03/27 05:16:43;;;;;;;;;;;;;;;16.84;49.62;100477.16;5069339;28;1109;-52
2024/03/27 05:19:09;;;;;;;;;;;;;;;16.57;50.21;100481.16;5072910;28;1031;-48
2024/03/27 05:21:35;;;;;;;;;;;;;;;16.43;50.65;100480.91;5069909;28;980;-55
2024/03/27 05:24:00;;;;;;;;;;;;;;;16.33;50.88;100477.41;5073576;28;987;-55
2024/03/27 05:26:26;;;;;;;;;;;;;;;16.16;51.20;100488.69;5060844;28;1057;-57
2024/03/27 05:28:51;;;;;;;;;;;;;;;16.07;51.37;100482.94;5073033;28;1137;-54
2024/03/27 05:31:16;;;;;;;;;;;;;;;15.88;51.50;100488.19;5073214;28;1914;-52
2024/03/27 05:33:42;;;;;;;;;;;;;;;15.85;51.62;100491.47;5073374;28;1156;-54
2024/03/27 05:36:08;;;;;;;;;;;;;;;15.68;51.88;100487.06;5072755;28;1085;-60
2024/03/27 05:38:33;;;;;;;;;;;;;;;15.61;51.90;100499.41;5070129;28;1118;-57
2024/03/27 05:40:59;;;;;;;;;;;;;;;15.52;52.08;100499.13;5072871;28;1524;-60
2024/03/27 05:43:26;;;;;;;;;;;;;;;15.45;52.22;100493.09;5073157;28;1058;-57
2024/03/27 05:45:52;;;;;;;;;;;;;;;15.29;52.29;100495.81;5073066;28;1105;-56
2024/03/27 05:48:18;;;;;;;;;;;;;;;16.20;50.60;100498.00;5072841;28;1014;-59
2024/03/27 05:50:43;;;;;;;;;;;;;;;17.44;47.79;100499.09;5061388;28;1922;-57
2024/03/27 05:53:09;;;;;;;;;;;;;;;16.77;49.33;100502.22;5061779;28;1256;-55
2024/03/27 05:55:34;;;;;;;;;;;;;;;16.20;50.74;100501.56;5070704;28;1186;-55
2024/03/27 05:58:00;;;;;;;;;;;;;;;15.96;51.37;100498.59;5072561;28;1146;-55
2024/03/27 06:00:25;;;;;;;;;;;;;;;15.73;51.65;100489.78;5072454;28;1062;-55
2024/03/27 06:02:51;;;;;;;;;;;;;;;15.59;51.98;100496.94;5067799;28;846;-53
2024/03/27 06:05:17;;;;;;;;;;;;;;;15.50;51.99;100499.41;5067764;28;1125;-55
2024/03/27 06:07:42;;;;;;;;;;;;;;;15.32;52.46;100500.75;5063932;28;1213;-55
2024/03/27 06:10:08;;;;;;;;;;;;;;;16.88;49.09;100503.00;5083721;28;1905;-56
2024/03/27 06:12:33;;;;;;;;;;;;;;;17.61;46.97;100503.38;5113152;28;1136;-59
2024/03/27 06:14:59;;;;;;;;;;;;;;;16.49;49.51;100500.94;5112324;28;1113;-55
2024/03/27 06:17:24;;;;;;;;;;;;;;;16.06;50.77;100509.56;5113778;28;1065;-59
2024/03/27 06:19:50;;;;;;;;;;;;;;;15.83;51.53;100510.13;5112324;28;1070;-56
2024/03/27 06:22:16;;;;;;;;;;;;;;;15.68;51.78;100517.22;5093727;28;1146;-56
2024/03/27 06:24:41;;;;;;;;;;;;;;;15.55;51.83;100513.09;5092658;28;1008;-56
2024/03/27 06:27:07;;;;;;;;;;;;;;;15.43;52.25;100514.44;5095783;28;876;-55
2024/03/27 06:29:32;;;;;;;;;;;;;;;15.56;52.37;100505.72;5099518;28;1906;-58
2024/03/27 06:31:58;;;;;;;;;;;;;;;17.22;48.64;100509.69;5098995;28;1121;-58
2024/03/27 06:34:23;;;;;;;;;;;;;;;17.23;48.44;100514.88;5091245;28;1121;-55
2024/03/27 06:36:49;;;;;;;;;;;;;;;16.38;50.51;100508.41;5091351;28;1098;-53
2024/03/27 06:39:14;;;;;;;;;;;;;;;16.02;51.22;100513.94;5084798;28;1117;-58
2024/03/27 06:41:40;;;;;;;;;;;;;;;15.84;51.91;100518.06;5097059;28;1238;-54
2024/03/27 06:44:06;;;;;;;;;;;;;;;15.85;52.46;100513.41;5099181;28;1057;-55
2024/03/27 06:46:36;;;;;;;;;;;;;;;15.52;52.97;100515.56;5078861;28;1086;-54
2024/03/27 06:49:17;;;;;;;;;;;;;;;15.39;53.22;100514.19;5088439;28;1113;-55
2024/03/27 06:51:46;;;;;;;;;;;;;;;15.20;53.21;100522.09;5091980;28;1910;-53
2024/03/27 06:54:11;;;;;;;;;;;;;;;16.20;51.49;100525.44;5098237;28;1116;-53
2024/03/27 06:56:37;;;;;;;;;;;;;;;17.41;48.58;100521.66;5082590;28;1113;-54
2024/03/27 06:59:02;;;;;;;;;;;;;;;17.02;49.23;100524.38;5089279;28;1070;-58
2024/03/27 07:01:28;;;;;;;;;;;;;;;16.22;51.46;100526.00;5095383;28;1113;-59
2024/03/27 07:03:54;;;;;;;;;;;;;;;15.88;52.18;100534.81;5087226;28;1169;-55
2024/03/27 07:06:20;;;;;;;;;;;;;;;15.63;52.61;100533.66;5091873;28;1103;-52
2024/03/27 07:08:46;;;;;;;;;;;;;;;15.59;52.68;100529.81;5079475;28;1083;-50
2024/03/27 07:11:11;;;;;;;;;;;;;;;16.60;50.96;100537.41;5078713;28;1906;-57
2024/03/27 07:13:37;;;;;;;;;;;;;;;17.78;48.07;100536.78;5060900;28;1098;-55
2024/03/27 07:16:03;;;;;;;;;;;;;;;18.75;45.78;100533.38;5097459;28;1010;-55
2024/03/27 07:18:28;;;;;;;;;;;;;;;19.86;43.71;100531.28;5098256;28;1046;-57
2024/03/27 07:20:55;;;;;;;;;;;;;;;20.28;42.95;100523.88;5097881;28;1146;-57
2024/03/27 07:23:20;;;;;;;;;;;;;;;20.52;42.34;100531.19;5089599;28;1054;-59
2024/03/27 07:25:45;;;;;;;;;;;;;;;20.72;41.80;100535.53;5092272;28;994;-55
2024/03/27 07:28:11;;;;;;;;;;;;;;;20.76;41.66;100542.06;5097943;28;1026;-56
2024/03/27 07:30:36;;;;;;;;;;;;;;;20.85;41.87;100540.22;5097286;28;1886;-54
2024/03/27 07:33:02;;;;;;;;;;;;;;;21.04;41.56;100536.50;5096843;28;1062;-46
2024/03/27 07:35:27;;;;;;;;;;;;;;;21.13;41.66;100529.13;5097288;28;1108;-57
2024/03/27 07:37:53;;;;;;;;;;;;;;;21.38;40.85;100529.66;5095867;28;1198;-57
2024/03/27 07:40:18;;;;;;;;;;;;;;;21.56;40.34;100529.81;5092379;28;1681;-59
2024/03/27 07:42:44;;;;;;;;;;;;;;;21.62;40.16;100537.69;5097167;28;1002;-57
2024/03/27 07:45:09;;;;;;;;;;;;;;;21.67;40.04;100531.22;5066317;28;1127;-58
2024/03/27 07:47:35;;;;;;;;;;;;;;;21.70;40.01;100534.19;5097926;28;1097;-58
2024/03/27 07:50:02;;;;;;;;;;;;;;;21.72;40.15;100531.09;5094869;28;1910;-58
2024/03/27 07:52:28;;;;;;;;;;;;;;;21.90;39.70;100528.47;5096494;28;1027;-56
2024/03/27 07:54:53;;;;;;;;;;;;;;;21.92;39.76;100527.00;5097557;28;1027;-53
2024/03/27 07:57:19;;;;;;;;;;;;;;;22.08;39.41;100526.59;5090707;28;1245;-58
2024/03/27 07:59:44;;;;;;;;;;;;;;;22.08;39.81;100529.34;5079037;28;1109;-57
2024/03/27 08:02:10;;;;;;;;;;;;;;;22.22;39.49;100532.88;5081614;28;1117;-59
2024/03/27 08:04:35;;;;;;;;;;;;;;;22.25;39.59;100531.44;5096562;28;1069;-56
2024/03/27 08:07:01;;;;;;;;;;;;;;;22.32;39.94;100534.56;5097105;28;1205;-54
2024/03/27 08:09:26;;;;;;;;;;;;;;;22.28;40.17;100533.56;5094416;28;1117;-56
2024/03/27 08:11:52;;;;;;;;;;;;;;;22.42;40.05;100527.94;5078757;28;1950;-56
2024/03/27 08:14:17;;;;;;;;;;;;;;;22.49;39.78;100531.06;5092125;28;1146;-57
2024/03/27 08:16:43;;;;;;;;;;;;;;;22.62;39.74;100527.34;5097197;28;1186;-56
2024/03/27 08:19:08;;;;;;;;;;;;;;;22.70;40.06;100528.53;5096828;28;1209;-57
2024/03/27 08:21:34;;;;;;;;;;;;;;;22.82;39.76;100527.91;5097121;28;1034;-58
2024/03/27 08:23:59;;;;;;;;;;;;;;;22.88;39.53;100518.31;5096968;28;1049;-53
2024/03/27 08:26:25;;;;;;;;;;;;;;;22.98;39.62;100519.97;5093028;28;974;-58
2024/03/27 08:28:50;;;;;;;;;;;;;;;23.02;39.69;100523.72;5092897;28;1138;-56
2024/03/27 08:31:16;;;;;;;;;;;;;;;23.05;39.75;100521.09;5096801;28;1974;-57
2024/03/27 08:33:44;;;;;;;;;;;;;;;23.06;39.83;100530.25;5096614;28;1082;-54
2024/03/27 08:36:10;;;;;;;;;;;;;;;23.07;40.20;100520.81;5096596;28;1463;-49
2024/03/27 08:38:35;;;;;;;;;;;;;;;23.24;40.27;100520.03;5082514;28;1055;-53
2024/03/27 08:41:03;;;;;;;;;;;;;;;23.22;40.26;100512.03;5083890;28;1206;-56
2024/03/27 08:43:28;;;;;;;;;;;;;;;23.32;40.55;100510.06;5092114;28;1062;-56
2024/03/27 08:45:54;;;;;;;;;;;;;;;23.43;40.54;100511.38;5094907;28;1325;-53
2024/03/27 08:48:19;;;;;;;;;;;;;;;23.45;40.62;100509.09;5096612;28;1062;-47
2024/03/27 08:50:45;;;;;;;;;;;;;;;23.60;40.32;100509.72;5091970;28;1909;-49
2024/03/27 08:53:10;;;;;;;;;;;;;;;23.60;40.15;100509.72;5080717;28;1090;-57
2024/03/27 08:55:42;;;;;;;;;;;;;;;23.69;40.25;100507.78;5080726;28;1103;-56
2024/03/27 08:58:07;;;;;;;;;;;;;;;23.77;40.44;100508.88;5083926;28;1145;-51
2024/03/27 09:00:33;;;;;;;;;;;;;;;23.81;40.36;100505.16;5095990;28;1053;-51
2024/03/27 09:02:59;;;;;;;;;;;;;;;23.89;40.44;100498.75;5090314;28;1146;-53
2024/03/27 09:05:24;;;;;;;;;;;;;;;23.98;39.96;100503.47;5079378;28;1107;-54
2024/03/27 09:07:50;;;;;;;;;;;;;;;24.01;39.89;100497.28;5077942;28;1153;-53
2024/03/27 09:10:15;;;;;;;;;;;;;;;24.04;40.28;100491.88;5089146;28;2384;-52
2024/03/27 09:12:41;;;;;;;;;;;;;;;24.11;40.08;100496.91;5082406;28;1257;-60
2024/03/27 09:15:06;;;;;;;;;;;;;;;24.21;40.13;100493.75;5093068;28;1111;-58
2024/03/27 09:17:32;;;;;;;;;;;;;;;24.19;39.73;100493.31;5090687;28;1213;-57
2024/03/27 09:19:57;;;;;;;;;;;;;;;24.25;39.90;100497.50;5087705;28;1069;-55
2024/03/27 09:22:23;;;;;;;;;;;;;;;24.35;39.74;100503.88;5096286;28;1110;-56
2024/03/27 09:24:48;;;;;;;;;;;;;;;24.46;39.76;100512.66;5096129;28;1003;-56
2024/03/27 09:27:14;;;;;;;;;;;;;;;24.42;39.64;100509.72;5095428;28;1118;-60
2024/03/27 09:29:39;;;;;;;;;;;;;;;24.42;39.34;100506.94;5095545;28;1894;-53
2024/03/27 09:32:06;;;;;;;;;;;;;;;24.45;39.18;100500.69;5095088;28;1012;-59
2024/03/27 09:34:31;;;;;;;;;;;;;;;24.48;39.37;100494.47;5094155;28;1094;-54
2024/03/27 09:36:56;;;;;;;;;;;;;;;24.55;38.88;100491.16;5093964;28;1018;-53
2024/03/27 09:39:23;;;;;;;;;;;;;;;24.48;38.88;100500.03;5089273;28;1020;-58
2024/03/27 09:41:48;;;;;;;;;;;;;;;24.56;38.52;100501.16;5093844;28;1480;-58
2024/03/27 09:44:14;;;;;;;;;;;;;;;24.83;38.16;100504.63;5086038;28;1067;-58
2024/03/27 09:46:41;;;;;;;;;;;;;;;25.35;37.10;100509.84;5077443;28;1194;-58
2024/03/27 09:49:09;;;;;;;;;;;;;;;25.66;36.31;100493.84;5084796;28;1006;-58
2024/03/27 09:51:34;;;;;;;;;;;;;;;25.70;36.10;100509.53;5083011;28;1921;-58
2024/03/27 09:54:00;;;;;;;;;;;;;;;25.63;36.06;100506.47;5095395;28;1129;-59
2024/03/27 09:56:26;;;;;;;;;;;;;;;21.27;45.63;100504.19;5096198;28;1122;-58
2024/03/27 09:58:51;;;;;;;;;;;;;;;22.83;42.01;100493.50;5099359;28;1067;-58
2024/03/27 10:01:17;;;;;;;;;;;;;;;19.75;49.40;100503.00;5084930;28;1238;-58
2024/03/27 10:03:43;;;;;;;;;;;;;;;18.32;52.36;100495.59;5097030;28;1253;-58
2024/03/27 10:06:08;;;;;;;;;;;;;;;16.79;54.73;100492.84;5096799;28;1233;-56
2024/03/27 10:08:34;;;;;;;;;;;;;;;16.39;57.25;100479.03;5099219;28;1057;-56
2024/03/27 10:11:00;;;;;;;;;;;;;;;17.94;51.22;100489.91;5085768;28;1921;-56
2024/03/27 10:13:26;;;;;;;;;;;;;;;17.90;48.34;100484.13;5099495;28;1062;-56
2024/03/27 10:15:53;;;;;;;;;;;;;;;17.65;46.14;100482.44;5083061;28;1054;-55
2024/03/27 10:18:19;;;;;;;;;;;;;;;17.41;44.77;100494.16;5079045;28;1027;-56
2024/03/27 10:20:45;;;;;;;;;;;;;;;17.34;43.86;100501.91;5097510;28;1044;-58
2024/03/27 10:23:11;;;;;;;;;;;;;;;17.02;42.94;100489.47;5099394;28;1090;-54
2024/03/27 10:25:37;;;;;;;;;;;;;;;16.77;42.49;100501.38;5099074;28;1078;-57
2024/03/27 10:28:04;;;;;;;;;;;;;;;16.65;41.91;100498.97;5098120;28;879;-59
2024/03/27 10:30:30;;;;;;;;;;;;;;;16.40;41.55;100495.22;5098916;28;1909;-58
2024/03/27 10:32:55;;;;;;;;;;;;;;;16.17;41.36;100495.81;5090385;28;1316;-56
2024/03/27 10:35:21;;;;;;;;;;;;;;;15.95;40.77;100505.19;5098872;28;1114;-53
2024/03/27 10:37:46;;;;;;;;;;;;;;;15.84;40.81;100506.28;5098610;28;1521;-54
2024/03/27 10:40:13;;;;;;;;;;;;;;;15.64;40.53;100510.66;5098296;28;859;-56
2024/03/27 10:42:39;;;;;;;;;;;;;;;15.60;40.16;100511.44;5080545;28;1383;-54
2024/03/27 10:45:06;;;;;;;;;;;;;;;15.36;40.36;100507.34;5080863;28;1071;-55
2024/03/27 10:47:31;;;;;;;;;;;;;;;15.36;40.47;100507.34;5080878;28;1081;-59
2024/03/27 10:50:00;;;;;;;;;;;;;;;15.18;40.89;100514.16;5096846;28;1918;-56
2024/03/27 10:52:26;;;;;;;;;;;;;;;15.33;40.88;100504.31;5091592;28;1074;-56
2024/03/27 10:54:51;;;;;;;;;;;;;;;15.01;41.53;100495.22;5091980;28;1355;-54
2024/03/27 10:57:18;;;;;;;;;;;;;;;14.98;40.98;100501.19;5070818;28;1043;-54
2024/03/27 10:59:45;;;;;;;;;;;;;;;14.86;40.91;100492.44;5077408;28;1155;-59
2024/03/27 11:02:11;;;;;;;;;;;;;;;14.81;40.57;100498.69;5098433;28;1077;-57
2024/03/27 11:04:42;;;;;;;;;;;;;;;14.59;40.84;100487.09;5091987;28;1508;-56
2024/03/27 11:07:08;;;;;;;;;;;;;;;14.55;40.63;100484.06;5097172;28;1280;-55
2024/03/27 11:09:34;;;;;;;;;;;;;;;14.43;40.49;100476.06;5098032;28;1150;-57
2024/03/27 11:12:00;;;;;;;;;;;;;;;14.35;40.59;100476.56;5097765;28;1976;-59
2024/03/27 11:14:26;;;;;;;;;;;;;;;14.22;40.92;100466.94;5098136;28;1046;-59
2024/03/27 11:16:52;;;;;;;;;;;;;;;14.35;40.47;100466.47;5097593;28;875;-58
2024/03/27 11:19:28;;;;;;;;;;;;;;;14.45;41.60;100459.38;5097875;28;1102;-58
2024/03/27 11:22:01;;;;;;;;;;;;;;;14.65;43.28;100464.97;5092090;28;1289;-56
2024/03/27 11:24:27;;;;;;;;;;;;;;;15.16;44.82;100461.53;5094317;28;1097;-56
2024/03/27 11:27:00;;;;;;;;;;;;;;;15.49;46.62;100458.56;5091448;28;1157;-56
2024/03/27 11:29:26;;;;;;;;;;;;;;;15.80;47.88;100453.91;5083204;28;1113;-57
2024/03/27 11:31:52;;;;;;;;;;;;;;;15.92;49.17;100453.63;5084654;28;1968;-58
2024/03/27 11:34:17;;;;;;;;;;;;;;;16.06;49.43;100449.22;5097730;28;1499;-59
2024/03/27 11:36:43;;;;;;;;;;;;;;;16.26;49.85;100442.03;5080027;28;1511;-57
2024/03/27 11:39:12;;;;;;;;;;;;;;;16.34;49.78;100438.72;5090860;28;1162;-56
2024/03/27 11:41:38;;;;;;;;;;;;;;;16.36;49.38;100428.25;5091645;28;1229;-56
2024/03/27 11:44:03;;;;;;;;;;;;;;;16.24;48.29;100430.50;5089626;28;963;-55
2024/03/27 11:46:29;;;;;;;;;;;;;;;15.97;47.59;100423.44;5077915;28;1163;-51
2024/03/27 11:48:55;;;;;;;;;;;;;;;15.77;47.41;100442.63;5059432;28;1103;-50
2024/03/27 11:51:20;;;;;;;;;;;;;;;15.68;46.38;100435.00;5077001;28;1961;-46
2024/03/27 11:53:46;;;;;;;;;;;;;;;15.70;45.67;100427.31;5076845;28;887;-49
2024/03/27 11:56:11;;;;;;;;;;;;;;;15.62;45.47;100422.38;5097661;28;1133;-51
2024/03/27 11:58:37;;;;;;;;;;;;;;;15.57;45.27;100433.34;5087744;28;1099;-48
2024/03/27 12:01:03;;;;;;;;;;;;;;;15.48;44.73;100415.81;5095128;28;1417;-50
2024/03/27 12:03:28;;;;;;;;;;;;;;;15.45;44.51;100424.59;5095531;28;1300;-46
2024/03/27 12:05:54;;;;;;;;;;;;;;;15.44;44.33;100426.50;5085964;28;1027;-52
2024/03/27 12:08:19;;;;;;;;;;;;;;;15.43;44.23;100415.81;5095375;28;1177;-52
2024/03/27 12:10:46;;;;;;;;;;;;;;;15.31;44.46;100424.31;5084429;28;1958;-52
2024/03/27 12:13:11;;;;;;;;;;;;;;;15.24;44.21;100424.59;5086765;28;1125;-53
2024/03/27 12:15:37;;;;;;;;;;;;;;;15.27;44.15;100425.97;5089921;28;1305;-54
2024/03/27 12:18:03;;;;;;;;;;;;;;;15.19;44.19;100416.34;5082068;28;1122;-53
2024/03/27 12:20:31;;;;;;;;;;;;;;;15.05;44.41;100411.44;5092711;28;1256;-58
2024/03/27 12:22:57;;;;;;;;;;;;;;;15.14;43.98;100421.84;5076120;28;1099;-57
2024/03/27 12:25:23;;;;;;;;;;;;;;;15.06;43.78;100415.78;5085500;28;1451;-57
2024/03/27 12:27:49;;;;;;;;;;;;;;;14.94;43.99;100407.03;5096260;28;959;-58
2024/03/27 12:30:18;;;;;;;;;;;;;;;14.91;44.02;100413.03;5091057;28;1910;-57
2024/03/27 12:32:44;;;;;;;;;;;;;;;15.08;45.03;100415.50;5095180;28;1265;-55
2024/03/27 12:35:09;;;;;;;;;;;;;;;15.15;45.46;100420.72;5095236;28;1355;-52
2024/03/27 12:37:35;;;;;;;;;;;;;;;15.10;45.53;100431.69;5092158;28;1327;-53
2024/03/27 12:40:00;;;;;;;;;;;;;;;14.79;46.85;100418.78;5081230;28;1296;-60